This is the latest recevied weather packets stored in our database for station/object XW7RMR. If no packets are shown the sender has not sent any weather packets the latest 10 day(s).
| Time | Temp. | Humidity | Pressure | Rain* | Wind** | Luminosity | Snow |
|---|---|---|---|---|---|---|---|
| 1777926304 | 20° C | 63% | 1011.8 hPa | 0 mm | - | 834 W/m² | - |
| 1777926001 | 20° C | 64% | 1012 hPa | 0 mm | - | 840 W/m² | - |
| 1777925698 | 20° C | 65% | 1012.1 hPa | 0 mm | - | 836 W/m² | - |
| 1777925396 | 18.33° C | 68% | 1012 hPa | 0 mm | - | 837 W/m² | - |
| 1777925092 | 18.89° C | 68% | 1012.2 hPa | 0 mm | - | 837 W/m² | - |
| 1777924789 | 18.33° C | 69% | 1012.2 hPa | 0 mm | - | 822 W/m² | - |
| 1777924485 | 18.89° C | 67% | 1012.1 hPa | 0 mm | - | 841 W/m² | - |
| 1777924182 | 17.78° C | 70% | 1012.1 hPa | 0 mm | - | 888 W/m² | - |
| 1777923878 | 18.89° C | 69% | 1012 hPa | 0 mm | - | 899 W/m² | - |
| 1777923574 | 18.89° C | 64% | 1012.1 hPa | 0 mm | - | 880 W/m² | - |
| 1777923271 | 18.89° C | 67% | 1012.2 hPa | 0 mm | - | 977 W/m² | - |
| 1777922970 | 17.78° C | 71% | 1012.3 hPa | 0 mm | - | 884 W/m² | - |
| 1777922667 | 17.22° C | 72% | 1012.2 hPa | 0 mm | - | 394 W/m² | - |
| 1777922366 | 17.22° C | 70% | 1012.5 hPa | 0 mm | - | 464 W/m² | - |
| 1777922064 | 16.67° C | 71% | 1012.5 hPa | 0 mm | - | 465 W/m² | - |
| 1777921758 | 17.22° C | 68% | 1012.7 hPa | 0 mm | - | 547 W/m² | - |
| 1777921454 | 16.67° C | 72% | 1012.7 hPa | 0 mm | - | 777 W/m² | - |
| 1777921151 | 16.67° C | 72% | 1012.6 hPa | 0 mm | - | 413 W/m² | - |
| 1777920848 | 16.11° C | 74% | 1012.7 hPa | 0 mm | - | 443 W/m² | - |
| 1777920544 | 16.67° C | 73% | 1012.6 hPa | 0 mm | - | 397 W/m² | - |
| 1777920240 | 16.11° C | 74% | 1012.8 hPa | 0 mm | - | 349 W/m² | - |
| 1777919936 | 16.11° C | 74% | 1012.5 hPa | 0 mm | - | 340 W/m² | - |
| 1777919634 | 16.11° C | 75% | 1012.8 hPa | 0 mm | - | 324 W/m² | - |
| 1777919331 | 15.56° C | 76% | 1012.8 hPa | 0 mm | - | 284 W/m² | - |
| 1777919029 | 15.56° C | 75% | 1012.8 hPa | 0 mm | - | 276 W/m² | - |
* Rain latest hour (hover to see other rain measurements)
** Current wind speed in m/s (hover to see current wind gust speed)